Capewater — PBPQ — position and weather

sailwx.info

Track history (hours):
 
Tides and Currents Weather Stations Pressure Air Temp Water Temp Dewpoint Dewpoint Depression Visibility Wind Speed Wind Dir Waves Ship Positions

Capewater

Last reported at 2015-Jul-02 04:30 UTC. Time now 2015-Jul-02 05:23 UTC.
Position N 51°54' E 003°13'.

Length 100 m; draft 7.2 m.

Type: Tanker. MMSI: 246346000.

Date/timePositionNaut miles runAvg speedWind from/ knotsBaromVisibWave heightAir tempDewpointWater temp
2015-Jul-02 04:30N 51°54' E 003°13'2612.7
2015-Jul-02 02:28N 51°43' E 002°35'1213.8
2015-Jul-02 01:33N 51°34' E 002°22'1514.0
2015-Jul-02 00:29N 51°21' E 002°10'1213.3
2015-Jul-01 23:33N 51°11' E 001°58'1413.7
2015-Jul-01 22:34N 51°04' E 001°40'1713.6
2015-Jul-01 21:20N 50°49' E 001°26'912.3
2015-Jul-01 20:33N 50°41' E 001°19'1212.3
2015-Jul-01 19:33N 50°33' E 001°05'4711.0
2015-Jul-01 15:15N 49°57' E 000°17'810.2
2015-Jul-01 14:30N 49°52' E 000°08'1111.7
2015-Jul-01 13:33N 49°43' W 000°03'1211.7
2015-Jul-01 12:34N 49°31' E 000°01'7 7.0
2015-Jul-01 11:33N 49°29' E 000°10'1 1.2
2015-Jul-01 10:32N 49°29' E 000°12'0 0.0
2015-Jul-01 09:29N 49°29' E 000°12'0 0.0
2015-Jul-01 08:32N 49°29' E 000°12'0 0.0
2015-Jul-01 07:32N 49°29' E 000°12'0 0.0
2015-Jul-01 06:32N 49°29' E 000°12'0 0.0
2015-Jul-01 05:32N 49°29' E 000°12'0 0.0
2015-Jul-01 04:32N 49°29' E 000°12'0 0.0
2015-Jul-01 03:32N 49°29' E 000°12'0 0.0
2015-Jul-01 02:32N 49°29' E 000°12'0 0.0
2015-Jul-01 01:32N 49°29' E 000°12'0 0.0
2015-Jul-01 00:32N 49°29' E 000°12'0 0.0
2015-Jun-30 23:32N 49°29' E 000°12'0 0.0
2015-Jun-30 22:32N 49°29' E 000°12'0 0.0
2015-Jun-30 21:32N 49°29' E 000°12'0 0.0
2015-Jun-30 20:32N 49°29' E 000°12'0 0.0
2015-Jun-30 19:29N 49°29' E 000°12'0 0.0
2015-Jun-30 18:32N 49°29' E 000°12'0 0.0
2015-Jun-30 17:32N 49°29' E 000°12'0 0.0
2015-Jun-30 16:32N 49°29' E 000°12'0 0.0
2015-Jun-30 15:32N 49°29' E 000°12'0 0.0
2015-Jun-30 14:32N 49°29' E 000°12'0 0.0
2015-Jun-30 13:32N 49°29' E 000°12'0 0.0
2015-Jun-30 12:32N 49°29' E 000°12'0 0.0
2015-Jun-30 11:32N 49°29' E 000°12'0 0.0
2015-Jun-30 10:32N 49°29' E 000°12'0 0.0
2015-Jun-30 09:34N 49°29' E 000°12'1 1.4
2015-Jun-30 08:34N 49°29' E 000°10'6 5.7
2015-Jun-30 07:34N 49°30' E 000°02'4 3.7
2015-Jun-30 06:32N 49°30' W 000°04'0 0.1
2015-Jun-30 05:32N 49°30' W 000°04'0 0.1
2015-Jun-30 04:32N 49°30' W 000°04'0 0.0
2015-Jun-30 03:32N 49°30' W 000°04'0 0.0
2015-Jun-30 02:32N 49°30' W 000°04'0 0.0
2015-Jun-30 01:32N 49°30' W 000°04'0 0.0
2015-Jun-30 00:32N 49°30' W 000°04'0 0.0
2015-Jun-29 23:32N 49°30' W 000°04'0 0.0
2015-Jun-29 22:32N 49°30' W 000°04'0 0.1
2015-Jun-29 21:32N 49°30' W 000°04'0 0.0
2015-Jun-29 20:32N 49°30' W 000°04'0 0.0
2015-Jun-29 19:32N 49°30' W 000°04'0 0.0
2015-Jun-29 18:32N 49°30' W 000°04'0 0.0
2015-Jun-29 17:32N 49°30' W 000°04'0 0.0
2015-Jun-29 16:32N 49°30' W 000°04'0 0.1
2015-Jun-29 15:32N 49°30' W 000°04'0 0.0
2015-Jun-29 14:32N 49°30' W 000°04'0 0.0
2015-Jun-29 13:32N 49°30' W 000°04'0 0.0
2015-Jun-29 12:29N 49°30' W 000°04'0 0.0
2015-Jun-29 11:32N 49°30' W 000°04'0 0.0
2015-Jun-29 10:32N 49°30' W 000°04'0 0.1
2015-Jun-29 09:32N 49°30' W 000°04'0 0.0
2015-Jun-29 08:32N 49°30' W 000°04'0 0.0
2015-Jun-29 07:32N 49°30' W 000°04'0 0.0
2015-Jun-29 06:32N 49°30' W 000°04'0 0.2
2015-Jun-29 05:33N 49°30' W 000°04'1010.3
2015-Jun-29 04:34N 49°38' W 000°14'1514.8
2015-Jun-29 03:33N 49°44' W 000°35'1111.3
2015-Jun-29 02:33N 49°48' W 000°51'7 6.6
2015-Jun-29 01:33N 49°42' W 000°48'1010.1
2015-Jun-29 00:33N 49°39' W 000°33'1312.5
2015-Jun-28 23:33N 49°33' W 000°16'1414.0
2015-Jun-28 22:33N 49°27' E 000°03'1414.0
2015-Jun-28 21:33N 49°27' E 000°25'5 4.8
2015-Jun-28 20:31N 49°28' E 000°33'0 0.0
2015-Jun-28 19:31N 49°28' E 000°33'0 0.0
2015-Jun-28 18:31N 49°28' E 000°33'0 0.0
2015-Jun-28 17:28N 49°28' E 000°33'0 0.0
2015-Jun-28 16:31N 49°28' E 000°33'0 0.0
2015-Jun-28 15:28N 49°28' E 000°33'0 0.0
2015-Jun-28 14:31N 49°28' E 000°33'0 0.0
2015-Jun-28 13:31N 49°28' E 000°33'0 0.0
2015-Jun-28 12:31N 49°28' E 000°33'0 0.0
2015-Jun-28 11:31N 49°28' E 000°33'0 0.0
2015-Jun-28 10:31N 49°28' E 000°33'0 0.0
2015-Jun-28 09:31N 49°28' E 000°33'0 0.0
2015-Jun-28 08:31N 49°28' E 000°33'0 0.0
2015-Jun-28 07:28N 49°28' E 000°33'0 0.0
2015-Jun-28 06:31N 49°28' E 000°33'0 0.0
2015-Jun-28 05:31N 49°28' E 000°33'0 0.0
2015-Jun-28 04:31N 49°28' E 000°33'0 0.0
2015-Jun-28 03:31N 49°28' E 000°33'0 0.0
2015-Jun-28 02:28N 49°28' E 000°33'0 0.0
2015-Jun-28 01:31N 49°28' E 000°33'0 0.0
2015-Jun-28 00:31N 49°28' E 000°33'0 0.0
2015-Jun-27 23:28N 49°28' E 000°33'0 0.0
2015-Jun-27 22:31N 49°28' E 000°33'0 0.0
2015-Jun-27 21:31N 49°28' E 000°33'0 0.0
2015-Jun-27 20:31N 49°28' E 000°33'0 0.0
2015-Jun-27 19:31N 49°28' E 000°33'0 0.0
2015-Jun-27 18:31N 49°28' E 000°33'0 0.0
2015-Jun-27 17:31N 49°28' E 000°33'0 0.0
2015-Jun-27 16:31N 49°28' E 000°33'0 0.0
2015-Jun-27 15:28N 49°28' E 000°33'0 0.0
2015-Jun-27 14:31N 49°28' E 000°33'0 0.0
2015-Jun-27 13:31N 49°28' E 000°33'0 0.0
2015-Jun-27 12:31N 49°28' E 000°33'0 0.0
2015-Jun-27 11:28N 49°28' E 000°33'0 0.0
2015-Jun-27 10:28N 49°28' E 000°33'0 0.0
2015-Jun-27 09:31N 49°28' E 000°33'0 0.0
2015-Jun-27 08:31N 49°28' E 000°33'0 0.0
2015-Jun-27 07:31N 49°28' E 000°33'0 0.0
2015-Jun-27 06:31N 49°28' E 000°33'0 0.0
2015-Jun-27 05:31N 49°28' E 000°33'0 0.0
2015-Jun-27 04:31N 49°28' E 000°33'0 0.0
2015-Jun-27 03:31N 49°28' E 000°33'3 3.6
2015-Jun-27 02:33N 49°28' E 000°27'1312.7
2015-Jun-27 01:33N 49°26' E 000°08'10 9.5
2015-Jun-27 00:33N 49°28' W 000°06'0 0.1
2015-Jun-26 23:33N 49°28' W 000°06'0 0.0
2015-Jun-26 22:33N 49°28' W 000°06'0 0.0
2015-Jun-26 21:33N 49°28' W 000°06'0 0.0
2015-Jun-26 20:33N 49°28' W 000°06'0 0.1
2015-Jun-26 19:33N 49°28' W 000°06'0 0.0
2015-Jun-26 18:33N 49°28' W 000°06'0 0.0
2015-Jun-26 17:33N 49°28' W 000°06'0 0.0
2015-Jun-26 16:33N 49°28' W 000°06'0 0.0
2015-Jun-26 15:33N 49°28' W 000°06'0 0.0
2015-Jun-26 14:33N 49°28' W 000°06'0 0.1
2015-Jun-26 13:33N 49°28' W 000°06'0 0.1
2015-Jun-26 12:33N 49°28' W 000°06'0 0.0
2015-Jun-26 11:33N 49°28' W 000°06'0 0.0
2015-Jun-26 10:33N 49°28' W 000°06'4 4.3
2015-Jun-26 09:34N 49°30' W 000°12'1010.4
2015-Jun-26 08:33N 49°37' W 000°24'1312.9
2015-Jun-26 07:33N 49°50' W 000°22'1413.3
2015-Jun-26 06:31N 50°02' W 000°12'1212.5
2015-Jun-26 05:33N 50°13' W 000°05'1711.4
2015-Jun-26 04:05N 50°30' E 000°00'1012.1
2015-Jun-26 03:15N 50°33' E 000°15'812.2
2015-Jun-26 02:33N 50°35' E 000°28'1312.6
2015-Jun-26 01:33N 50°42' E 000°45'1413.6
2015-Jun-26 00:33N 50°50' E 001°02'1413.9
2015-Jun-25 23:34N 50°59' E 001°18'1313.4
2015-Jun-25 22:33N 51°07' E 001°35'1212.3
2015-Jun-25 21:34N 51°17' E 001°48'1211.9
2015-Jun-25 20:34N 51°27' E 001°58'1211.8
2015-Jun-25 19:33N 51°35' E 002°11'1212.0
2015-Jun-25 18:33N 51°44' E 002°24'2712.7
2015-Jun-25 16:26N 52°03' E 002°56'1213.5
2015-Jun-25 15:33N 52°03' E 003°16'1313.6
2015-Jun-25 14:33N 52°03' E 003°38'1212.4
2015-Jun-25 13:33N 52°02' E 003°58'1313.4
2015-Jun-25 12:34N 51°54' E 004°16'2 1.5
2015-Jun-25 11:32N 51°53' E 004°16'0 0.0
2015-Jun-25 10:32N 51°53' E 004°16'0 0.0
2015-Jun-25 09:29N 51°53' E 004°16'0 0.0
2015-Jun-25 08:29N 51°53' E 004°16'0 0.0
2015-Jun-25 07:32N 51°53' E 004°16'0 0.0
2015-Jun-25 06:29N 51°53' E 004°16'0 0.0
2015-Jun-25 05:32N 51°53' E 004°16'0 0.0
2015-Jun-25 04:29N 51°53' E 004°16'0 0.0
2015-Jun-25 03:29N 51°53' E 004°16'0 0.0
2015-Jun-25 02:32N 51°53' E 004°16'0 0.0
2015-Jun-25 01:32N 51°53' E 004°16'0 0.0
2015-Jun-25 00:29N 51°53' E 004°16'0 0.0
2015-Jun-24 23:29N 51°53' E 004°16'0 0.0
2015-Jun-24 22:32N 51°53' E 004°16'0 0.0
2015-Jun-24 21:26N 51°53' E 004°16'0 0.0
2015-Jun-24 20:26N 51°53' E 004°16'0 0.0
2015-Jun-24 19:32N 51°53' E 004°16'0 0.0
2015-Jun-24 18:32N 51°53' E 004°16'0 0.0
2015-Jun-24 17:32N 51°53' E 004°16'0 0.0
2015-Jun-24 16:29N 51°53' E 004°16'0 0.0
2015-Jun-24 15:32N 51°53' E 004°16'0 0.0
2015-Jun-24 14:26N 51°53' E 004°16'0 0.0
2015-Jun-24 13:32N 51°53' E 004°16'0 0.0
2015-Jun-24 12:23N 51°53' E 004°16'0 0.0
2015-Jun-24 11:32N 51°53' E 004°16'0 0.0
2015-Jun-24 10:32N 51°53' E 004°16'1 1.3
2015-Jun-24 09:33N 51°54' E 004°18'1211.8
2015-Jun-24 08:33N 51°60' E 004°01'1212.2
2015-Jun-24 07:34N 51°58' E 003°41'7 6.6
2015-Jun-24 06:27N 51°55' E 003°31'0 0.0
2015-Jun-24 05:18N 51°55' E 003°31'0 0.1
2015-Jun-24 03:09N 51°55' E 003°31'0 0.0
2015-Jun-24 02:30N 51°55' E 003°31'0 0.0
2015-Jun-24 01:33N 51°55' E 003°31'0 0.0
2015-Jun-24 00:18N 51°55' E 003°31'0 0.0
2015-Jun-23 23:33N 51°55' E 003°31'0 0.0
2015-Jun-23 22:30N 51°55' E 003°31'0 0.0
2015-Jun-23 21:27N 51°55' E 003°31'0 0.0
2015-Jun-23 20:33N 51°55' E 003°31'0 0.0
2015-Jun-23 18:45N 51°55' E 003°31'36 1.5
2015-Jun-22 19:34N 51°23' E 003°56'9 8.8
2015-Jun-22 18:33N 51°23' E 004°10'9 8.8
2015-Jun-22 17:34N 51°16' E 004°18'1 0.8
2015-Jun-22 16:34N 51°16' E 004°17'1 0.9
2015-Jun-22 15:32N 51°16' E 004°15'0 0.0
2015-Jun-22 14:32N 51°16' E 004°15'0 0.0
2015-Jun-22 13:32N 51°16' E 004°15'0 0.0
2015-Jun-22 12:29N 51°16' E 004°15'0 0.0
2015-Jun-22 11:29N 51°16' E 004°15'0 0.0
2015-Jun-22 10:32N 51°16' E 004°15'0 0.0
2015-Jun-22 09:32N 51°16' E 004°15'0 0.0
2015-Jun-22 08:26N 51°16' E 004°15'0 0.0
2015-Jun-22 07:32N 51°16' E 004°15'0 0.0
2015-Jun-22 06:32N 51°16' E 004°15'0 0.0
2015-Jun-22 05:32N 51°16' E 004°15'0 0.0
2015-Jun-22 04:32N 51°16' E 004°15'  
Track history (hours):
 
Tides and Currents Weather Stations Pressure Air Temp Water Temp Dewpoint Dewpoint Depression Visibility Wind Speed Wind Dir Waves Ship Positions

Capewater

Last reported at 2015-Jul-02 04:30 UTC. Time now 2015-Jul-02 05:23 UTC.
Position N 51°54' E 003°13'.

Length 100 m; draft 7.2 m.

Type: Tanker. MMSI: 246346000.

Date/timePositionNaut miles runAvg speedWind from/ knotsBaromVisibWave heightAir tempDewpointWater temp
2015-Jul-02 04:30N 51°54' E 003°13'2612.7
2015-Jul-02 02:28N 51°43' E 002°35'1213.8
2015-Jul-02 01:33N 51°34' E 002°22'1514.0
2015-Jul-02 00:29N 51°21' E 002°10'1213.3
2015-Jul-01 23:33N 51°11' E 001°58'1413.7
2015-Jul-01 22:34N 51°04' E 001°40'1713.6
2015-Jul-01 21:20N 50°49' E 001°26'912.3
2015-Jul-01 20:33N 50°41' E 001°19'1212.3
2015-Jul-01 19:33N 50°33' E 001°05'4711.0
2015-Jul-01 15:15N 49°57' E 000°17'810.2
2015-Jul-01 14:30N 49°52' E 000°08'1111.7
2015-Jul-01 13:33N 49°43' W 000°03'1211.7
2015-Jul-01 12:34N 49°31' E 000°01'7 7.0
2015-Jul-01 11:33N 49°29' E 000°10'1 1.2
2015-Jul-01 10:32N 49°29' E 000°12'0 0.0
2015-Jul-01 09:29N 49°29' E 000°12'0 0.0
2015-Jul-01 08:32N 49°29' E 000°12'0 0.0
2015-Jul-01 07:32N 49°29' E 000°12'0 0.0
2015-Jul-01 06:32N 49°29' E 000°12'0 0.0
2015-Jul-01 05:32N 49°29' E 000°12'0 0.0
2015-Jul-01 04:32N 49°29' E 000°12'0 0.0
2015-Jul-01 03:32N 49°29' E 000°12'0 0.0
2015-Jul-01 02:32N 49°29' E 000°12'0 0.0
2015-Jul-01 01:32N 49°29' E 000°12'0 0.0
2015-Jul-01 00:32N 49°29' E 000°12'0 0.0
2015-Jun-30 23:32N 49°29' E 000°12'0 0.0
2015-Jun-30 22:32N 49°29' E 000°12'0 0.0
2015-Jun-30 21:32N 49°29' E 000°12'0 0.0
2015-Jun-30 20:32N 49°29' E 000°12'0 0.0
2015-Jun-30 19:29N 49°29' E 000°12'0 0.0
2015-Jun-30 18:32N 49°29' E 000°12'0 0.0
2015-Jun-30 17:32N 49°29' E 000°12'0 0.0
2015-Jun-30 16:32N 49°29' E 000°12'0 0.0
2015-Jun-30 15:32N 49°29' E 000°12'0 0.0
2015-Jun-30 14:32N 49°29' E 000°12'0 0.0
2015-Jun-30 13:32N 49°29' E 000°12'0 0.0
2015-Jun-30 12:32N 49°29' E 000°12'0 0.0
2015-Jun-30 11:32N 49°29' E 000°12'0 0.0
2015-Jun-30 10:32N 49°29' E 000°12'0 0.0
2015-Jun-30 09:34N 49°29' E 000°12'1 1.4
2015-Jun-30 08:34N 49°29' E 000°10'6 5.7
2015-Jun-30 07:34N 49°30' E 000°02'4 3.7
2015-Jun-30 06:32N 49°30' W 000°04'0 0.1
2015-Jun-30 05:32N 49°30' W 000°04'0 0.1
2015-Jun-30 04:32N 49°30' W 000°04'0 0.0
2015-Jun-30 03:32N 49°30' W 000°04'0 0.0
2015-Jun-30 02:32N 49°30' W 000°04'0 0.0
2015-Jun-30 01:32N 49°30' W 000°04'0 0.0
2015-Jun-30 00:32N 49°30' W 000°04'0 0.0
2015-Jun-29 23:32N 49°30' W 000°04'0 0.0
2015-Jun-29 22:32N 49°30' W 000°04'0 0.1
2015-Jun-29 21:32N 49°30' W 000°04'0 0.0
2015-Jun-29 20:32N 49°30' W 000°04'0 0.0
2015-Jun-29 19:32N 49°30' W 000°04'0 0.0
2015-Jun-29 18:32N 49°30' W 000°04'0 0.0
2015-Jun-29 17:32N 49°30' W 000°04'0 0.0
2015-Jun-29 16:32N 49°30' W 000°04'0 0.1
2015-Jun-29 15:32N 49°30' W 000°04'0 0.0
2015-Jun-29 14:32N 49°30' W 000°04'0 0.0
2015-Jun-29 13:32N 49°30' W 000°04'0 0.0
2015-Jun-29 12:29N 49°30' W 000°04'0 0.0
2015-Jun-29 11:32N 49°30' W 000°04'0 0.0
2015-Jun-29 10:32N 49°30' W 000°04'0 0.1
2015-Jun-29 09:32N 49°30' W 000°04'0 0.0
2015-Jun-29 08:32N 49°30' W 000°04'0 0.0
2015-Jun-29 07:32N 49°30' W 000°04'0 0.0
2015-Jun-29 06:32N 49°30' W 000°04'0 0.2
2015-Jun-29 05:33N 49°30' W 000°04'1010.3
2015-Jun-29 04:34N 49°38' W 000°14'1514.8
2015-Jun-29 03:33N 49°44' W 000°35'1111.3
2015-Jun-29 02:33N 49°48' W 000°51'7 6.6
2015-Jun-29 01:33N 49°42' W 000°48'1010.1
2015-Jun-29 00:33N 49°39' W 000°33'1312.5
2015-Jun-28 23:33N 49°33' W 000°16'1414.0
2015-Jun-28 22:33N 49°27' E 000°03'1414.0
2015-Jun-28 21:33N 49°27' E 000°25'5 4.8
2015-Jun-28 20:31N 49°28' E 000°33'0 0.0
2015-Jun-28 19:31N 49°28' E 000°33'0 0.0
2015-Jun-28 18:31N 49°28' E 000°33'0 0.0
2015-Jun-28 17:28N 49°28' E 000°33'0 0.0
2015-Jun-28 16:31N 49°28' E 000°33'0 0.0
2015-Jun-28 15:28N 49°28' E 000°33'0 0.0
2015-Jun-28 14:31N 49°28' E 000°33'0 0.0
2015-Jun-28 13:31N 49°28' E 000°33'0 0.0
2015-Jun-28 12:31N 49°28' E 000°33'0 0.0
2015-Jun-28 11:31N 49°28' E 000°33'0 0.0
2015-Jun-28 10:31N 49°28' E 000°33'0 0.0
2015-Jun-28 09:31N 49°28' E 000°33'0 0.0
2015-Jun-28 08:31N 49°28' E 000°33'0 0.0
2015-Jun-28 07:28N 49°28' E 000°33'0 0.0
2015-Jun-28 06:31N 49°28' E 000°33'0 0.0
2015-Jun-28 05:31N 49°28' E 000°33'0 0.0
2015-Jun-28 04:31N 49°28' E 000°33'0 0.0
2015-Jun-28 03:31N 49°28' E 000°33'0 0.0
2015-Jun-28 02:28N 49°28' E 000°33'0 0.0
2015-Jun-28 01:31N 49°28' E 000°33'0 0.0
2015-Jun-28 00:31N 49°28' E 000°33'0 0.0
2015-Jun-27 23:28N 49°28' E 000°33'0 0.0
2015-Jun-27 22:31N 49°28' E 000°33'0 0.0
2015-Jun-27 21:31N 49°28' E 000°33'0 0.0
2015-Jun-27 20:31N 49°28' E 000°33'0 0.0
2015-Jun-27 19:31N 49°28' E 000°33'0 0.0
2015-Jun-27 18:31N 49°28' E 000°33'0 0.0
2015-Jun-27 17:31N 49°28' E 000°33'0 0.0
2015-Jun-27 16:31N 49°28' E 000°33'0 0.0
2015-Jun-27 15:28N 49°28' E 000°33'0 0.0
2015-Jun-27 14:31N 49°28' E 000°33'0 0.0
2015-Jun-27 13:31N 49°28' E 000°33'0 0.0
2015-Jun-27 12:31N 49°28' E 000°33'0 0.0
2015-Jun-27 11:28N 49°28' E 000°33'0 0.0
2015-Jun-27 10:28N 49°28' E 000°33'0 0.0
2015-Jun-27 09:31N 49°28' E 000°33'0 0.0
2015-Jun-27 08:31N 49°28' E 000°33'0 0.0
2015-Jun-27 07:31N 49°28' E 000°33'0 0.0
2015-Jun-27 06:31N 49°28' E 000°33'0 0.0
2015-Jun-27 05:31N 49°28' E 000°33'0 0.0
2015-Jun-27 04:31N 49°28' E 000°33'0 0.0
2015-Jun-27 03:31N 49°28' E 000°33'3 3.6
2015-Jun-27 02:33N 49°28' E 000°27'1312.7
2015-Jun-27 01:33N 49°26' E 000°08'10 9.5
2015-Jun-27 00:33N 49°28' W 000°06'0 0.1
2015-Jun-26 23:33N 49°28' W 000°06'0 0.0
2015-Jun-26 22:33N 49°28' W 000°06'0 0.0
2015-Jun-26 21:33N 49°28' W 000°06'0 0.0
2015-Jun-26 20:33N 49°28' W 000°06'0 0.1
2015-Jun-26 19:33N 49°28' W 000°06'0 0.0
2015-Jun-26 18:33N 49°28' W 000°06'0 0.0
2015-Jun-26 17:33N 49°28' W 000°06'0 0.0
2015-Jun-26 16:33N 49°28' W 000°06'0 0.0
2015-Jun-26 15:33N 49°28' W 000°06'0 0.0
2015-Jun-26 14:33N 49°28' W 000°06'0 0.1
2015-Jun-26 13:33N 49°28' W 000°06'0 0.1
2015-Jun-26 12:33N 49°28' W 000°06'0 0.0
2015-Jun-26 11:33N 49°28' W 000°06'0 0.0
2015-Jun-26 10:33N 49°28' W 000°06'4 4.3
2015-Jun-26 09:34N 49°30' W 000°12'1010.4
2015-Jun-26 08:33N 49°37' W 000°24'1312.9
2015-Jun-26 07:33N 49°50' W 000°22'1413.3
2015-Jun-26 06:31N 50°02' W 000°12'1212.5
2015-Jun-26 05:33N 50°13' W 000°05'1711.4
2015-Jun-26 04:05N 50°30' E 000°00'1012.1
2015-Jun-26 03:15N 50°33' E 000°15'812.2
2015-Jun-26 02:33N 50°35' E 000°28'1312.6
2015-Jun-26 01:33N 50°42' E 000°45'1413.6
2015-Jun-26 00:33N 50°50' E 001°02'1413.9
2015-Jun-25 23:34N 50°59' E 001°18'1313.4
2015-Jun-25 22:33N 51°07' E 001°35'1212.3
2015-Jun-25 21:34N 51°17' E 001°48'1211.9
2015-Jun-25 20:34N 51°27' E 001°58'1211.8
2015-Jun-25 19:33N 51°35' E 002°11'1212.0
2015-Jun-25 18:33N 51°44' E 002°24'2712.7
2015-Jun-25 16:26N 52°03' E 002°56'1213.5
2015-Jun-25 15:33N 52°03' E 003°16'1313.6
2015-Jun-25 14:33N 52°03' E 003°38'1212.4
2015-Jun-25 13:33N 52°02' E 003°58'1313.4
2015-Jun-25 12:34N 51°54' E 004°16'2 1.5
2015-Jun-25 11:32N 51°53' E 004°16'0 0.0
2015-Jun-25 10:32N 51°53' E 004°16'0 0.0
2015-Jun-25 09:29N 51°53' E 004°16'0 0.0
2015-Jun-25 08:29N 51°53' E 004°16'0 0.0
2015-Jun-25 07:32N 51°53' E 004°16'0 0.0
2015-Jun-25 06:29N 51°53' E 004°16'0 0.0
2015-Jun-25 05:32N 51°53' E 004°16'0 0.0
2015-Jun-25 04:29N 51°53' E 004°16'0 0.0
2015-Jun-25 03:29N 51°53' E 004°16'0 0.0
2015-Jun-25 02:32N 51°53' E 004°16'0 0.0
2015-Jun-25 01:32N 51°53' E 004°16'0 0.0
2015-Jun-25 00:29N 51°53' E 004°16'0 0.0
2015-Jun-24 23:29N 51°53' E 004°16'0 0.0
2015-Jun-24 22:32N 51°53' E 004°16'0 0.0
2015-Jun-24 21:26N 51°53' E 004°16'0 0.0
2015-Jun-24 20:26N 51°53' E 004°16'0 0.0
2015-Jun-24 19:32N 51°53' E 004°16'0 0.0
2015-Jun-24 18:32N 51°53' E 004°16'0 0.0
2015-Jun-24 17:32N 51°53' E 004°16'0 0.0
2015-Jun-24 16:29N 51°53' E 004°16'0 0.0
2015-Jun-24 15:32N 51°53' E 004°16'0 0.0
2015-Jun-24 14:26N 51°53' E 004°16'0 0.0
2015-Jun-24 13:32N 51°53' E 004°16'0 0.0
2015-Jun-24 12:23N 51°53' E 004°16'0 0.0
2015-Jun-24 11:32N 51°53' E 004°16'0 0.0
2015-Jun-24 10:32N 51°53' E 004°16'1 1.3
2015-Jun-24 09:33N 51°54' E 004°18'1211.8
2015-Jun-24 08:33N 51°60' E 004°01'1212.2
2015-Jun-24 07:34N 51°58' E 003°41'7 6.6
2015-Jun-24 06:27N 51°55' E 003°31'0 0.0
2015-Jun-24 05:18N 51°55' E 003°31'0 0.1
2015-Jun-24 03:09N 51°55' E 003°31'0 0.0
2015-Jun-24 02:30N 51°55' E 003°31'0 0.0
2015-Jun-24 01:33N 51°55' E 003°31'0 0.0
2015-Jun-24 00:18N 51°55' E 003°31'0 0.0
2015-Jun-23 23:33N 51°55' E 003°31'0 0.0
2015-Jun-23 22:30N 51°55' E 003°31'0 0.0
2015-Jun-23 21:27N 51°55' E 003°31'0 0.0
2015-Jun-23 20:33N 51°55' E 003°31'0 0.0
2015-Jun-23 18:45N 51°55' E 003°31'36 1.5
2015-Jun-22 19:34N 51°23' E 003°56'9 8.8
2015-Jun-22 18:33N 51°23' E 004°10'9 8.8
2015-Jun-22 17:34N 51°16' E 004°18'1 0.8
2015-Jun-22 16:34N 51°16' E 004°17'1 0.9
2015-Jun-22 15:32N 51°16' E 004°15'0 0.0
2015-Jun-22 14:32N 51°16' E 004°15'0 0.0
2015-Jun-22 13:32N 51°16' E 004°15'0 0.0
2015-Jun-22 12:29N 51°16' E 004°15'0 0.0
2015-Jun-22 11:29N 51°16' E 004°15'0 0.0
2015-Jun-22 10:32N 51°16' E 004°15'0 0.0
2015-Jun-22 09:32N 51°16' E 004°15'0 0.0
2015-Jun-22 08:26N 51°16' E 004°15'0 0.0
2015-Jun-22 07:32N 51°16' E 004°15'0 0.0
2015-Jun-22 06:32N 51°16' E 004°15'0 0.0
2015-Jun-22 05:32N 51°16' E 004°15'0 0.0
2015-Jun-22 04:32N 51°16' E 004°15'  

Dump ship's entire track history